Time;durP1;ratioP1;P1;durP2;ratioP2;P2;SDS_P1;SDS_P2;PMS_P1;PMS_P2;Temp;Humidity;BMP_temperature;BMP_pressure;BME280_temperature;BME280_humidity;BME280_pressure;Samples;Min_cycle;Max_cycle;Signal;HPM_P1;HPM_P2
2022/05/02 00:01:36;;;;;;;4.30;2.80;;;;;;;16.35;82.36;100423.28;5111431;28;20096;-70
2022/05/02 00:04:02;;;;;;;3.05;2.75;;;;;;;16.37;81.18;100429.34;5111197;28;20031;-70
2022/05/02 00:06:27;;;;;;;3.05;2.75;;;;;;;16.26;80.09;100413.47;5090566;28;20063;-70
2022/05/02 00:08:53;;;;;;;3.20;2.70;;;;;;;16.32;79.57;100423.63;5092817;28;20031;-70
2022/05/02 00:11:18;;;;;;;3.70;2.55;;;;;;;16.29;78.28;100430.22;5092761;28;20031;-70
2022/05/02 00:13:44;;;;;;;4.80;2.45;;;;;;;16.27;77.68;100437.66;5111253;28;20035;-70
2022/05/02 00:16:09;;;;;;;2.72;2.50;;;;;;;16.26;77.45;100422.44;5110692;28;20039;-70
2022/05/02 00:18:35;;;;;;;2.95;2.63;;;;;;;16.27;77.10;100434.09;5092750;28;20110;-70
2022/05/02 00:21:00;;;;;;;3.33;2.60;;;;;;;16.19;77.79;100421.41;5092572;28;20035;-70
2022/05/02 00:23:26;;;;;;;3.05;2.60;;;;;;;16.19;78.67;100417.84;5110901;28;20027;-70
2022/05/02 00:25:51;;;;;;;3.67;3.00;;;;;;;16.21;79.27;100424.78;5110736;28;21229;-71
2022/05/02 00:28:17;;;;;;;3.20;2.83;;;;;;;16.20;79.45;100424.94;5110902;28;20023;-70
2022/05/02 00:30:43;;;;;;;3.67;3.20;;;;;;;16.24;79.46;100429.00;5111017;28;20141;-70
2022/05/02 00:33:09;;;;;;;3.10;2.80;;;;;;;16.22;80.87;100428.34;5110661;28;20031;-70
2022/05/02 00:35:34;;;;;;;3.85;2.90;;;;;;;16.18;79.92;100424.28;5110546;28;20031;-70
2022/05/02 00:37:59;;;;;;;2.75;2.45;;;;;;;16.12;78.02;100417.66;5110754;28;20050;-70
2022/05/02 00:40:25;;;;;;;3.22;2.55;;;;;;;16.11;78.31;100420.53;5110372;28;20145;-70
2022/05/02 00:42:51;;;;;;;3.67;2.47;;;;;;;16.15;79.00;100419.22;5110685;28;20075;-70
2022/05/02 00:45:19;;;;;;;2.80;2.50;;;;;;;16.08;78.63;100412.75;5092015;28;20099;-70
2022/05/02 00:47:57;;;;;;;2.83;2.53;;;;;;;16.12;78.25;100422.25;5092091;28;20031;-70
2022/05/02 00:50:41;;;;;;;4.47;3.05;;;;;;;16.11;78.71;100420.53;5110298;28;20039;-70
2022/05/02 00:53:09;;;;;;;3.03;2.65;;;;;;;16.12;78.45;100430.38;5092379;28;20056;-70
2022/05/02 00:55:35;;;;;;;3.53;2.83;;;;;;;16.08;78.84;100424.44;5110571;28;20039;-70
2022/05/02 00:58:02;;;;;;;3.17;2.83;;;;;;;16.09;79.29;100428.81;5110452;28;20081;-70
2022/05/02 01:00:29;;;;;;;2.90;2.70;;;;;;;16.08;77.89;100421.72;5110234;28;20032;-70
2022/05/02 01:02:55;;;;;;;2.97;2.50;;;;;;;16.06;77.18;100418.34;5110407;28;20039;-70
2022/05/02 01:05:20;;;;;;;2.95;2.70;;;;;;;16.03;76.79;100421.41;5110122;28;20024;-70
2022/05/02 01:07:46;;;;;;;2.40;2.20;;;;;;;16.05;76.41;100426.66;5092023;28;20024;-70
2022/05/02 01:10:17;;;;;;;3.47;2.35;;;;;;;16.00;75.93;100421.72;5109814;28;20027;-71
2022/05/02 01:12:43;;;;;;;2.88;2.65;;;;;;;16.00;76.00;100418.16;5110150;28;20504;-71
2022/05/02 01:15:10;;;;;;;2.88;2.42;;;;;;;15.96;76.38;100406.81;5109844;28;20038;-70
2022/05/02 01:17:37;;;;;;;2.70;2.50;;;;;;;16.03;77.62;100413.28;5109656;28;20046;-70
2022/05/02 01:20:10;;;;;;;3.67;2.40;;;;;;;16.03;77.02;100416.00;5109509;28;20383;-70
2022/05/02 01:22:35;;;;;;;5.90;2.60;;;;;;;16.00;79.33;100412.75;5109676;28;20039;-70
2022/05/02 01:25:01;;;;;;;3.28;2.50;;;;;;;16.03;79.36;100415.13;5091814;28;20069;-70
2022/05/02 01:27:26;;;;;;;3.05;2.60;;;;;;;16.03;77.54;100418.69;5109756;28;20039;-70
2022/05/02 01:29:52;;;;;;;2.53;2.33;;;;;;;16.02;76.42;100413.44;5109955;28;20027;-70
2022/05/02 01:32:17;;;;;;;2.80;2.50;;;;;;;16.01;77.37;100407.19;5109599;28;20022;-70
2022/05/02 01:34:43;;;;;;;2.45;2.17;;;;;;;16.05;78.66;100415.81;5091533;28;20050;-70
2022/05/02 01:37:10;;;;;;;4.65;2.22;;;;;;;15.99;77.83;100411.06;5109187;28;20027;-70
2022/05/02 01:39:36;;;;;;;2.53;2.33;;;;;;;15.97;76.17;100402.25;5109830;28;20547;-70
2022/05/02 01:42:07;;;;;;;2.83;2.50;;;;;;;15.98;76.87;100410.22;5109448;28;20082;-70
2022/05/02 01:44:34;;;;;;;4.85;2.30;;;;;;;16.01;80.07;100412.59;5109828;28;20114;-70
2022/05/02 01:47:00;;;;;;;2.55;2.35;;;;;;;15.97;80.86;100402.25;5110133;28;20503;-70
2022/05/02 01:49:25;;;;;;;2.67;2.47;;;;;;;16.00;81.28;100407.34;5109493;28;20092;-70
2022/05/02 01:51:51;;;;;;;3.08;2.50;;;;;;;15.97;82.45;100410.38;5109879;28;20016;-70
2022/05/02 01:54:17;;;;;;;2.78;2.50;;;;;;;15.98;82.67;100414.78;5109576;28;20039;-70
2022/05/02 01:56:44;;;;;;;2.78;2.58;;;;;;;15.96;82.18;100411.41;5109646;28;20460;-71
2022/05/02 01:59:10;;;;;;;3.45;2.60;;;;;;;15.94;81.93;100409.69;5109554;28;20474;-70
2022/05/02 02:01:36;;;;;;;2.75;2.55;;;;;;;15.94;82.40;100403.44;5109457;28;20031;-70
2022/05/02 02:06:53;;;;;;;3.95;2.58;;;;;;;15.89;81.03;100401.25;5069259;28;20100;-70
2022/05/02 02:09:19;;;;;;;4.10;2.45;;;;;;;15.90;82.94;100407.50;5109065;28;20472;-70
2022/05/02 02:11:45;;;;;;;3.40;2.50;;;;;;;15.87;83.76;100403.25;5109280;28;20410;-71
2022/05/02 02:14:10;;;;;;;2.97;2.53;;;;;;;15.81;84.18;100403.91;5108604;28;20024;-70
2022/05/02 02:16:36;;;;;;;2.97;2.65;;;;;;;15.84;85.16;100409.00;5108397;28;20396;-70
2022/05/02 02:19:01;;;;;;;3.45;2.40;;;;;;;15.77;83.85;100401.75;5108635;28;20015;-70
2022/05/02 02:21:27;;;;;;;3.80;2.70;;;;;;;15.79;83.63;100405.97;5108351;28;20027;-70
2022/05/02 02:23:53;;;;;;;3.33;2.42;;;;;;;15.74;84.32;100402.88;5108130;28;20023;-70
2022/05/02 02:26:19;;;;;;;4.25;2.95;;;;;;;15.78;81.90;100406.13;5108278;28;20027;-70
2022/05/02 02:28:44;;;;;;;5.90;2.70;;;;;;;15.76;82.05;100409.00;5108480;28;20498;-70
2022/05/02 02:31:10;;;;;;;3.08;2.78;;;;;;;15.75;81.47;100411.88;5108413;28;20027;-70
2022/05/02 02:33:37;;;;;;;3.78;2.70;;;;;;;15.75;83.01;100410.00;5108212;28;20035;-70
2022/05/02 02:36:03;;;;;;;3.08;2.78;;;;;;;15.72;82.85;100398.66;5108438;28;20015;-70
2022/05/02 02:38:28;;;;;;;4.65;3.13;;;;;;;15.73;84.07;100400.34;5108083;28;20617;-70
2022/05/02 02:40:54;;;;;;;3.20;2.90;;;;;;;15.69;84.42;100399.00;5108369;28;20122;-70
2022/05/02 02:43:19;;;;;;;2.80;2.60;;;;;;;15.72;84.50;100412.19;5108033;28;20040;-70
2022/05/02 02:45:45;;;;;;;4.82;3.20;;;;;;;15.71;85.64;100408.63;5108317;28;20038;-70
2022/05/02 02:48:10;;;;;;;4.10;3.15;;;;;;;15.69;87.08;100415.22;5109701;28;20024;-70
2022/05/02 02:50:36;;;;;;;4.43;3.25;;;;;;;15.67;88.46;100409.13;5111850;28;20085;-70
2022/05/02 02:53:02;;;;;;;5.75;2.90;;;;;;;15.68;87.99;100419.78;5111874;28;20024;-71
2022/05/02 02:55:28;;;;;;;4.57;3.50;;;;;;;15.65;86.18;100420.13;5109090;28;20059;-71
2022/05/02 02:57:54;;;;;;;5.22;3.00;;;;;;;15.60;84.71;100410.78;5111719;28;20020;-70
2022/05/02 03:00:19;;;;;;;3.53;3.22;;;;;;;15.63;84.78;100419.44;5111541;28;20040;-70
2022/05/02 03:02:45;;;;;;;5.32;3.88;;;;;;;15.59;83.72;100409.13;5111754;28;20047;-70
2022/05/02 03:07:57;;;;;;;3.97;3.58;;;;;;;15.64;84.86;100420.28;5111649;28;20063;-70
2022/05/02 03:10:23;;;;;;;5.40;3.35;;;;;;;15.52;84.01;100408.94;5111328;28;20071;-70
2022/05/02 03:12:48;;;;;;;6.65;3.90;;;;;;;15.57;84.21;100411.97;5093077;28;20107;-70
2022/05/02 03:15:13;;;;;;;6.00;3.60;;;;;;;15.55;84.61;100408.59;5111295;28;20059;-70
2022/05/02 03:17:39;;;;;;;5.28;4.03;;;;;;;15.59;84.32;100420.78;5111108;28;20060;-70
2022/05/02 03:20:05;;;;;;;4.38;3.60;;;;;;;15.56;84.49;100418.41;5111118;28;20035;-70
2022/05/02 03:22:31;;;;;;;4.10;3.70;;;;;;;15.57;84.25;100416.53;5111109;28;20042;-71
2022/05/02 03:24:57;;;;;;;5.43;4.05;;;;;;;15.57;85.03;100420.09;5111126;28;20024;-70
2022/05/02 03:27:22;;;;;;;4.97;3.83;;;;;;;15.55;85.39;100422.09;5092892;28;20061;-70
2022/05/02 03:29:48;;;;;;;5.05;4.47;;;;;;;15.52;85.33;100418.91;5092811;28;20046;-70
2022/05/02 03:32:13;;;;;;;5.13;3.83;;;;;;;15.49;86.68;100403.84;5110919;28;20024;-70
2022/05/02 03:34:39;;;;;;;6.53;3.97;;;;;;;15.54;86.64;100420.41;5092374;28;20028;-70
2022/05/02 03:37:04;;;;;;;7.13;4.22;;;;;;;15.54;87.78;100412.31;5110901;28;20030;-71
2022/05/02 03:39:30;;;;;;;4.88;4.38;;;;;;;15.54;89.10;100423.13;5111036;28;20059;-69
2022/05/02 03:41:55;;;;;;;8.98;5.35;;;;;;;15.48;88.46;100409.44;5110664;28;20468;-70
2022/05/02 03:44:21;;;;;;;7.97;4.38;;;;;;;15.51;88.63;100409.94;5092186;28;20039;-70
2022/05/02 03:46:46;;;;;;;7.57;4.47;;;;;;;15.51;89.73;100414.50;5110745;28;20027;-70
2022/05/02 03:49:12;;;;;;;5.13;4.57;;;;;;;15.50;90.13;100418.19;5110153;28;20035;-70
2022/05/02 03:51:37;;;;;;;6.88;4.88;;;;;;;15.43;91.10;100414.47;5092332;28;20483;-70
2022/05/02 03:54:03;;;;;;;7.32;4.70;;;;;;;15.46;91.73;100415.00;5110840;28;20035;-71
2022/05/02 03:56:28;;;;;;;5.60;4.65;;;;;;;15.44;92.41;100411.59;5110383;28;20024;-71
2022/05/02 03:58:54;;;;;;;11.45;5.28;;;;;;;15.46;92.57;100423.09;5110104;28;20184;-70
2022/05/02 04:01:19;;;;;;;5.57;4.63;;;;;;;15.45;92.71;100417.84;5109479;28;20043;-70
2022/05/02 04:03:46;;;;;;;6.70;5.38;;;;;;;15.44;92.61;100426.97;5105996;28;20402;-69
2022/05/02 04:06:12;;;;;;;7.90;4.93;;;;;;;15.38;93.00;100412.25;5087944;28;20008;-70
2022/05/02 04:08:37;;;;;;;5.80;5.05;;;;;;;15.42;92.58;100421.72;5109997;28;20027;-70
2022/05/02 04:11:03;;;;;;;6.50;4.85;;;;;;;15.43;92.94;100431.53;5091442;28;20023;-70
2022/05/02 04:13:28;;;;;;;7.20;4.90;;;;;;;15.37;94.53;100415.13;5110198;28;20030;-70
2022/05/02 04:15:53;;;;;;;5.53;4.60;;;;;;;15.41;95.17;100422.72;5110324;28;20036;-70
2022/05/02 04:18:19;;;;;;;7.60;5.53;;;;;;;15.39;95.71;100421.22;5109825;28;20038;-70
2022/05/02 04:20:44;;;;;;;4.95;4.35;;;;;;;15.42;95.99;100435.22;5110333;28;20387;-70
2022/05/02 04:23:11;;;;;;;6.88;5.05;;;;;;;15.44;94.40;100432.38;5110251;28;20054;-70
2022/05/02 04:25:37;;;;;;;5.97;4.68;;;;;;;15.43;93.98;100427.97;5110104;28;20027;-70
2022/05/02 04:28:03;;;;;;;7.45;4.50;;;;;;;15.35;93.28;100420.66;5110159;28;20030;-70
2022/05/02 04:30:28;;;;;;;7.22;4.53;;;;;;;15.45;91.80;100440.31;5110761;28;20034;-70
2022/05/02 04:32:54;;;;;;;6.88;4.78;;;;;;;15.39;90.67;100432.03;5109002;28;20035;-71
2022/05/02 04:35:19;;;;;;;6.28;4.63;;;;;;;15.45;88.19;100439.47;5108727;28;20027;-71
2022/05/02 04:37:45;;;;;;;8.68;5.32;;;;;;;15.45;85.43;100445.72;5110211;28;20483;-70
2022/05/02 04:40:10;;;;;;;8.20;4.70;;;;;;;15.49;83.90;100448.97;5092272;28;20030;-70
2022/05/02 04:42:39;;;;;;;7.25;4.57;;;;;;;15.43;81.75;100434.25;5110175;28;20062;-71
2022/05/02 04:45:08;;;;;;;7.57;4.63;;;;;;;15.49;82.56;100444.41;5110413;28;20036;-76
2022/05/02 04:47:42;;;;;;;5.60;4.97;;;;;;;15.38;83.59;100425.75;5109702;28;20429;-73
2022/05/02 04:50:14;;;;;;;5.75;4.68;;;;;;;15.57;84.45;100460.66;5110073;28;20716;-72
2022/05/02 04:52:40;;;;;;;8.98;5.22;;;;;;;15.52;84.37;100441.38;5110366;28;20030;-73
2022/05/02 04:55:05;;;;;;;10.60;5.03;;;;;;;15.61;88.18;100462.00;5110452;28;20028;-72
2022/05/02 04:57:31;;;;;;;8.95;4.75;;;;;;;15.59;88.95;100452.38;5109938;28;20085;-72
2022/05/02 04:59:56;;;;;;;5.20;4.70;;;;;;;15.62;89.83;100462.88;5109491;28;20076;-72
2022/05/02 05:02:22;;;;;;;6.78;5.00;;;;;;;15.59;89.90;100457.78;5109740;28;20136;-72
2022/05/02 05:04:47;;;;;;;7.72;5.25;;;;;;;15.54;90.51;100452.84;5109931;28;20027;-72
2022/05/02 05:07:12;;;;;;;5.80;4.40;;;;;;;15.59;88.97;100458.63;5110049;28;20107;-72
2022/05/02 05:09:38;;;;;;;4.68;4.07;;;;;;;15.57;88.85;100460.66;5109938;28;20023;-72
2022/05/02 05:12:21;;;;;;;6.95;5.15;;;;;;;15.56;88.53;100463.50;5108742;28;20030;-71
2022/05/02 05:18:40;;;;;;;5.90;5.03;;;;;;;15.47;89.38;100449.13;5108464;28;20062;-71
2022/05/02 05:21:07;;;;;;;11.15;6.65;;;;;;;15.44;90.00;100449.44;5026782;28;20063;-69
2022/05/02 05:24:06;;;;;;;9.98;7.15;;;;;;;15.49;89.53;100460.63;5093113;28;20134;-71
2022/05/02 05:26:58;;;;;;;8.57;7.68;;;;;;;15.56;89.90;100464.38;5109682;28;20027;-72
2022/05/02 05:30:04;;;;;;;10.45;7.07;;;;;;;15.55;89.70;100465.34;5108709;28;20100;-72
2022/05/02 05:32:43;;;;;;;6.70;6.10;;;;;;;15.59;88.99;100471.28;5057859;28;20046;-70
2022/05/02 05:35:10;;;;;;;10.65;6.50;;;;;;;15.59;90.21;100464.03;5110054;28;20023;-71
2022/05/02 05:37:59;;;;;;;6.57;5.85;;;;;;;15.58;89.97;100453.41;5109457;28;20350;-71
2022/05/02 05:40:32;;;;;;;5.40;4.90;;;;;;;15.63;88.65;100459.13;5109591;28;20476;-71
2022/05/02 05:43:31;;;;;;;4.03;3.50;;;;;;;15.63;81.63;100460.00;5109731;28;20027;-71
2022/05/02 05:46:02;;;;;;;4.97;3.72;;;;;;;15.67;78.62;100463.19;5109720;28;20357;-71
2022/05/02 05:48:47;;;;;;;4.75;3.35;;;;;;;15.71;78.74;100453.78;5109601;28;20050;-71
2022/05/02 05:51:24;;;;;;;4.72;3.63;;;;;;;15.74;77.73;100456.16;5109922;28;20030;-71
2022/05/02 05:54:19;;;;;;;4.13;3.53;;;;;;;15.80;78.54;100466.28;5109603;28;20495;-71
2022/05/02 05:57:20;;;;;;;;;;;;;;;15.84;78.99;100463.09;5095549;28;20745;-71
2022/05/02 06:00:07;;;;;;;4.38;2.97;;;;;;;15.93;78.95;100463.13;5046790;28;19958;-71
2022/05/02 06:02:35;;;;;;;4.32;3.25;;;;;;;16.00;78.00;100458.75;5103135;28;20065;-71
2022/05/02 06:05:01;;;;;;;5.15;3.17;;;;;;;16.01;76.70;100453.16;5109589;28;20391;-71
2022/05/02 06:07:28;;;;;;;7.00;3.88;;;;;;;16.13;76.55;100468.09;5109654;28;20031;-71
2022/05/02 06:09:57;;;;;;;6.45;3.90;;;;;;;16.22;76.06;100461.66;5109787;28;20540;-71
2022/05/02 06:12:24;;;;;;;3.50;3.05;;;;;;;16.33;75.49;100464.06;5109340;28;20020;-71
2022/05/02 06:20:24;;;;;;;4.57;3.00;;;;;;;16.72;73.80;100459.69;5107802;28;20114;-71
2022/05/02 06:22:50;;;;;;;5.28;3.05;;;;;;;16.80;72.30;100450.72;5092451;28;20055;-71
2022/05/02 06:25:19;;;;;;;6.05;3.70;;;;;;;16.89;72.50;100445.09;5113409;28;20032;-71
2022/05/02 06:27:47;;;;;;;5.35;3.05;;;;;;;17.07;71.86;100461.16;5113700;28;20035;-71
2022/05/02 06:30:14;;;;;;;6.18;3.72;;;;;;;17.15;71.17;100456.56;5113537;28;20024;-71
2022/05/02 06:32:43;;;;;;;4.30;3.50;;;;;;;17.22;70.03;100449.41;5113145;28;20023;-71
2022/05/02 06:35:08;;;;;;;5.40;3.92;;;;;;;17.39;68.67;100453.78;5113320;28;20027;-71
2022/05/02 06:37:51;;;;;;;9.52;5.25;;;;;;;17.48;67.37;100450.03;5113463;28;20498;-71
2022/05/02 06:40:49;;;;;;;9.35;6.00;;;;;;;17.57;66.32;100450.84;5110556;28;20673;-71
2022/05/02 06:43:40;;;;;;;8.45;4.97;;;;;;;17.69;65.32;100454.88;5107878;28;20047;-71
2022/05/02 06:46:15;;;;;;;4.10;3.63;;;;;;;17.88;64.63;100449.88;5101942;28;20419;-71
2022/05/02 06:49:05;;;;;;;3.42;2.50;;;;;;;18.05;62.84;100447.88;5094499;28;20066;-71
2022/05/02 06:51:36;;;;;;;4.03;2.58;;;;;;;18.21;61.19;100449.66;5098690;28;20115;-71
2022/05/02 06:54:28;;;;;;;3.00;2.35;;;;;;;18.36;59.75;100450.56;5113106;28;20031;-71
2022/05/02 06:57:14;;;;;;;3.17;2.10;;;;;;;18.51;59.45;100440.63;5110818;28;20090;-71
2022/05/02 06:59:49;;;;;;;2.80;2.00;;;;;;;18.61;58.76;100435.78;5110251;28;20027;-71
2022/05/02 07:02:36;;;;;;;5.38;2.38;;;;;;;18.79;57.35;100453.44;5111045;28;20547;-71
2022/05/02 07:05:08;;;;;;;3.50;1.95;;;;;;;18.97;54.74;100448.53;5112522;28;20085;-71
2022/05/02 07:07:55;;;;;;;5.93;2.50;;;;;;;19.14;53.80;100444.59;5112854;28;20054;-71
2022/05/02 07:10:42;;;;;;;5.57;2.17;;;;;;;19.42;53.07;100442.09;5112463;28;20503;-71
2022/05/02 07:13:40;;;;;;;4.30;2.10;;;;;;;19.70;50.31;100430.34;5113169;28;20027;-71
2022/05/02 07:16:22;;;;;;;2.33;1.77;;;;;;;20.05;49.53;100434.09;5093668;28;20061;-71
2022/05/02 07:19:29;;;;;;;3.45;1.60;;;;;;;20.25;48.68;100412.56;5094427;28;20403;-71
2022/05/02 07:21:56;;;;;;;3.25;1.70;;;;;;;20.68;46.10;100436.00;5080412;28;20071;-71
2022/05/02 07:24:40;;;;;;;4.20;1.88;;;;;;;20.96;42.41;100428.72;5112033;28;20028;-72
2022/05/02 07:27:05;;;;;;;2.92;1.95;;;;;;;21.16;41.43;100419.66;5093771;28;20544;-71
2022/05/02 07:29:34;;;;;;;2.50;1.40;;;;;;;21.43;40.59;100413.28;5112511;28;20023;-70
2022/05/02 07:32:01;;;;;;;4.03;1.65;;;;;;;21.64;38.65;100417.81;5112381;28;20027;-70
2022/05/02 07:34:29;;;;;;;2.67;1.33;;;;;;;21.79;38.57;100421.25;5111418;28;20023;-70
2022/05/02 07:36:54;;;;;;;1.92;1.60;;;;;;;21.74;38.34;100394.53;5112420;28;20027;-70
2022/05/02 07:39:22;;;;;;;4.55;1.60;;;;;;;21.98;38.39;100421.31;5112053;28;20026;-70
2022/05/02 07:41:49;;;;;;;5.18;1.48;;;;;;;22.03;37.70;100421.53;5112290;28;20027;-70
2022/05/02 07:44:17;;;;;;;3.33;1.90;;;;;;;22.11;37.24;100420.50;5112344;28;20028;-71
2022/05/02 07:46:45;;;;;;;3.88;1.90;;;;;;;22.00;36.80;100400.13;5093545;28;20027;-71
2022/05/02 07:49:15;;;;;;;2.90;1.75;;;;;;;22.15;36.72;100427.22;5111856;28;20114;-71
2022/05/02 07:51:47;;;;;;;2.58;1.70;;;;;;;22.10;36.70;100422.41;5093529;28;20027;-71
2022/05/02 07:54:19;;;;;;;2.78;1.48;;;;;;;22.08;36.84;100418.19;5111847;28;20435;-71
2022/05/02 07:56:49;;;;;;;5.47;1.70;;;;;;;22.12;36.65;100425.75;5111290;28;20273;-71
2022/05/02 07:59:16;;;;;;;2.08;1.40;;;;;;;22.15;36.21;100419.03;5109140;28;20597;-70
2022/05/02 08:01:42;;;;;;;2.33;1.58;;;;;;;22.16;35.42;100415.28;5111373;28;20460;-70
2022/05/02 08:04:11;;;;;;;3.35;1.50;;;;;;;22.18;35.60;100422.22;5111541;28;20043;-70
2022/05/02 08:06:45;;;;;;;2.42;1.95;;;;;;;22.28;35.42;100421.84;5093307;28;20031;-70
2022/05/02 08:09:38;;;;;;;5.63;2.10;;;;;;;22.34;35.04;100416.34;5109503;28;20026;-70
2022/05/02 08:12:21;;;;;;;3.28;1.70;;;;;;;22.43;35.80;100427.94;5109382;28;20256;-70
2022/05/02 08:15:00;;;;;;;3.53;1.67;;;;;;;22.46;36.19;100413.84;5111103;28;20032;-70
2022/05/02 08:17:57;;;;;;;1.75;1.58;;;;;;;22.48;35.65;100422.69;5110954;28;20495;-70
2022/05/02 08:20:34;;;;;;;2.45;1.52;;;;;;;22.49;36.04;100420.78;5091011;28;20404;-70
2022/05/02 08:29:24;;;;;;;4.40;1.90;;;;;;;22.70;35.93;100399.56;5109552;28;20038;-70
2022/05/02 08:31:54;;;;;;;3.40;1.90;;;;;;;22.84;36.21;100405.88;5107513;28;20384;-67
2022/05/02 08:34:38;;;;;;;1.75;1.50;;;;;;;23.02;35.37;100401.44;5107154;28;20045;-69
2022/05/02 08:37:12;;;;;;;2.80;1.58;;;;;;;23.16;34.56;100389.44;5109975;28;20060;-69
2022/05/02 08:39:52;;;;;;;5.20;1.80;;;;;;;23.27;33.92;100396.16;5109823;28;20395;-69
2022/05/02 08:42:23;;;;;;;5.78;1.90;;;;;;;23.34;33.24;100391.53;5091435;28;20024;-66
2022/05/02 08:45:27;;;;;;;2.75;1.30;;;;;;;23.35;31.83;100394.06;5109915;28;20522;-68
2022/05/02 08:47:52;;;;;;;1.85;1.33;;;;;;;23.40;32.34;100396.97;5108147;28;20528;-67
2022/05/02 08:50:40;;;;;;;2.38;1.42;;;;;;;;;;5109564;28;20031;-66
2022/05/02 08:53:14;;;;;;;2.33;1.35;;;;;;;23.44;31.98;100392.75;5089698;28;20490;-66
2022/05/02 08:56:05;;;;;;;5.05;1.90;;;;;;;23.41;32.03;100389.63;5109244;28;20134;-66
2022/05/02 08:58:55;;;;;;;3.15;1.80;;;;;;;23.37;32.00;100388.34;5109488;28;20051;-68
2022/05/02 09:01:49;;;;;;;5.05;1.80;;;;;;;23.38;32.25;100377.19;5109935;28;20073;-68
2022/05/02 09:04:37;;;;;;;2.55;1.60;;;;;;;23.40;31.66;100376.97;5078809;28;20457;-68
2022/05/02 09:07:24;;;;;;;3.70;1.90;;;;;;;23.46;30.88;100378.84;5109833;28;20027;-68
2022/05/02 09:10:23;;;;;;;2.75;1.70;;;;;;;23.55;30.35;100369.34;5109595;28;20510;-68
2022/05/02 09:13:18;;;;;;;3.17;1.80;;;;;;;23.58;30.96;100356.06;5091852;28;20024;-71
2022/05/02 09:16:17;;;;;;;4.03;1.50;;;;;;;23.72;32.25;100371.38;5108729;28;20451;-71
2022/05/02 09:19:20;;;;;;;3.60;1.42;;;;;;;23.74;31.57;100365.66;5109742;28;20103;-71
2022/05/02 09:22:24;;;;;;;3.33;1.90;;;;;;;23.89;32.46;100364.31;5090385;28;20047;-68
2022/05/02 09:25:08;;;;;;;2.45;1.67;;;;;;;23.91;32.90;100356.72;5065387;28;20056;-68
2022/05/02 09:27:53;;;;;;;2.25;1.63;;;;;;;23.95;32.58;100357.97;5109612;28;20031;-68
2022/05/02 09:31:03;;;;;;;2.38;1.88;;;;;;;24.02;32.34;100353.28;5110287;28;20023;-68
2022/05/02 09:33:31;;;;;;;5.75;1.70;;;;;;;24.01;31.87;100339.81;5081037;28;20042;-68
2022/05/02 09:36:25;;;;;;;4.75;1.75;;;;;;;24.04;32.28;100340.22;5091398;28;20039;-68
2022/05/02 09:38:59;;;;;;;1.58;1.40;;;;;;;24.17;31.94;100348.34;5108353;28;20490;-68
2022/05/02 09:41:36;;;;;;;2.53;1.67;;;;;;;24.17;31.76;100344.75;5108769;28;20059;-68
2022/05/02 09:50:20;;;;;;;2.35;1.70;;;;;;;24.11;31.39;100348.38;5106708;28;20054;-68
2022/05/02 09:53:03;;;;;;;2.38;1.83;;;;;;;24.12;31.50;100345.44;5110742;28;20498;-68
2022/05/02 09:59:23;;;;;;;2.15;1.80;;;;;;;24.08;31.35;100333.25;5039837;28;20036;-64
2022/05/02 10:01:57;;;;;;;4.75;1.20;;;;;;;24.04;31.85;100322.94;5029527;28;20497;-64
2022/05/02 10:04:30;;;;;;;;;;;;;;;24.09;31.99;100326.69;5097550;28;20035;-64
2022/05/02 10:07:03;;;;;;;8.93;2.00;;;;;;;24.13;32.14;100327.09;5089267;28;19919;-64
2022/05/02 10:09:41;;;;;;;3.55;1.60;;;;;;;24.15;32.76;100324.97;5091337;28;20031;-64
2022/05/02 10:12:27;;;;;;;3.67;1.67;;;;;;;24.19;31.94;100327.03;5112267;28;20393;-63
2022/05/02 10:15:24;;;;;;;4.35;1.63;;;;;;;24.20;31.67;100322.41;5111316;28;20036;-64
2022/05/02 10:18:01;;;;;;;2.92;1.70;;;;;;;24.12;32.40;100314.47;5111493;28;20056;-64
2022/05/02 10:20:57;;;;;;;5.30;2.35;;;;;;;24.02;31.93;100305.88;5105858;28;20032;-63
2022/05/02 10:24:01;;;;;;;3.10;1.83;;;;;;;23.95;32.91;100299.59;5109816;28;20039;-63
2022/05/02 10:27:04;;;;;;;4.90;1.85;;;;;;;23.93;33.26;100308.00;5081075;28;20047;-64
2022/05/02 10:29:54;;;;;;;8.35;2.28;;;;;;;23.91;32.92;100310.13;5008920;28;20149;-63
2022/05/02 10:32:37;;;;;;;2.72;1.63;;;;;;;23.81;32.56;100300.72;4991090;28;20032;-71
2022/05/02 10:35:03;;;;;;;2.80;1.70;;;;;;;23.79;32.34;100300.09;5078243;28;20035;-71
2022/05/02 10:37:37;;;;;;;3.10;2.00;;;;;;;23.72;32.75;100302.88;5109346;28;20495;-67
2022/05/02 10:40:08;;;;;;;2.65;1.50;;;;;;;23.69;32.72;100302.47;5110340;28;20153;-67
2022/05/02 10:42:34;;;;;;;2.70;1.75;;;;;;;23.60;33.01;100299.16;5112564;28;20101;-68
2022/05/02 10:45:08;;;;;;;1.98;1.63;;;;;;;23.55;33.33;100298.97;5113195;28;20030;-68
2022/05/02 10:47:54;;;;;;;4.13;1.80;;;;;;;23.55;33.31;100292.66;5112861;28;20460;-68
2022/05/02 10:50:34;;;;;;;3.35;1.63;;;;;;;23.59;33.28;100297.47;5113288;28;20416;-67
2022/05/02 10:53:14;;;;;;;5.50;2.20;;;;;;;23.61;33.35;100300.00;5112360;28;20023;-67
2022/05/02 10:56:02;;;;;;;3.17;1.63;;;;;;;23.63;33.34;100293.25;5112914;28;20046;-67
2022/05/02 10:58:32;;;;;;;5.00;1.85;;;;;;;23.65;33.05;100291.13;5112682;28;20505;-67
2022/05/02 11:01:06;;;;;;;2.13;1.65;;;;;;;23.67;33.29;100289.00;5112854;28;20120;-67
2022/05/02 11:03:47;;;;;;;4.13;2.35;;;;;;;23.76;34.00;100292.34;5110894;28;20027;-68
2022/05/02 11:06:40;;;;;;;3.53;1.50;;;;;;;23.80;33.75;100277.94;5093961;28;20081;-67
2022/05/02 11:09:10;;;;;;;3.22;1.73;;;;;;;23.91;33.34;100268.19;5112540;28;20036;-67
2022/05/02 11:11:49;;;;;;;1.80;1.70;;;;;;;24.01;32.68;100279.53;5112994;28;20035;-67
2022/05/02 11:14:41;;;;;;;2.30;1.48;;;;;;;24.10;32.85;100289.16;5094547;28;20039;-67
2022/05/02 11:17:15;;;;;;;6.35;2.45;;;;;;;24.06;32.43;100294.25;5109633;28;20486;-67
2022/05/02 11:22:36;;;;;;;6.60;1.65;;;;;;;23.96;32.41;100304.03;5112271;28;19943;-68
2022/05/02 11:25:22;;;;;;;3.35;1.50;;;;;;;23.86;32.38;100299.00;5112350;28;20036;-71
2022/05/02 11:28:29;;;;;;;2.05;1.52;;;;;;;23.81;32.94;100296.09;5111737;28;20069;-71
2022/05/02 11:31:29;;;;;;;2.40;1.70;;;;;;;23.81;32.74;100297.97;5111627;28;20032;-71
2022/05/02 11:34:29;;;;;;;2.58;1.80;;;;;;;23.77;32.42;100288.53;5111781;28;20039;-71
2022/05/02 11:36:58;;;;;;;5.45;1.75;;;;;;;23.73;32.43;100279.91;5110824;28;20036;-71
2022/05/02 11:40:11;;;;;;;1.83;1.50;;;;;;;23.77;32.55;100286.59;5093217;28;20015;-74
2022/05/02 11:42:48;;;;;;;3.35;1.77;;;;;;;23.82;32.60;100277.72;5093812;28;20062;-70
2022/05/02 11:45:17;;;;;;;5.80;1.77;;;;;;;23.88;32.91;100290.56;5112154;28;20623;-66
2022/05/02 11:47:51;;;;;;;3.05;1.80;;;;;;;23.91;32.55;100274.53;5112031;28;20035;-67
2022/05/02 11:50:21;;;;;;;5.03;1.65;;;;;;;23.93;32.65;100271.56;5112267;28;20103;-67
2022/05/02 11:52:59;;;;;;;1.60;1.45;;;;;;;23.86;32.09;100271.59;5111715;28;20088;-67
2022/05/02 11:55:34;;;;;;;1.63;1.40;;;;;;;23.86;32.15;100266.13;5094136;28;20048;-67
2022/05/02 11:57:59;;;;;;;3.35;1.60;;;;;;;23.84;32.21;100270.16;5112072;28;20023;-67
2022/05/02 12:00:34;;;;;;;2.58;1.40;;;;;;;23.79;32.25;100273.53;5112203;28;20057;-67
2022/05/02 12:03:18;;;;;;;2.45;1.50;;;;;;;23.70;32.62;100276.78;5093835;28;20026;-67
2022/05/02 12:05:51;;;;;;;3.50;1.58;;;;;;;23.59;32.75;100270.09;5111852;28;20112;-66
2022/05/02 12:08:31;;;;;;;3.72;1.60;;;;;;;23.58;32.65;100259.34;5111945;28;20476;-67
2022/05/02 12:11:23;;;;;;;3.70;2.13;;;;;;;23.56;32.70;100259.56;5111865;28;20031;-67
2022/05/02 12:13:51;;;;;;;3.28;1.52;;;;;;;23.55;33.34;100271.59;5106396;28;20089;-67
2022/05/02 12:16:18;;;;;;;1.92;1.50;;;;;;;23.54;33.25;100266.34;5111964;28;20023;-67
2022/05/02 12:18:53;;;;;;;2.55;1.75;;;;;;;23.54;33.34;100250.72;5111546;28;20027;-67
2022/05/02 12:21:36;;;;;;;3.78;1.60;;;;;;;23.61;33.10;100256.19;5108517;28;20127;-67
2022/05/02 12:24:04;;;;;;;1.50;1.40;;;;;;;23.57;33.09;100242.06;5110909;28;20388;-67
2022/05/02 12:26:32;;;;;;;5.35;1.40;;;;;;;23.67;33.37;100250.66;5111102;28;20470;-67
2022/05/02 12:29:04;;;;;;;1.95;1.50;;;;;;;23.71;33.32;100256.53;5111474;28;20023;-67
2022/05/02 12:31:33;;;;;;;4.53;1.80;;;;;;;23.72;33.72;100250.84;5111298;28;20035;-67